createdAt,value
2023-01-25T00:02:26.601Z,82.71
2023-01-25T00:04:54.578Z,82.85
2023-01-25T00:07:21.326Z,82.87
2023-01-25T00:09:47.926Z,82.78
2023-01-25T00:12:14.658Z,82.67
2023-01-25T00:14:41.305Z,82.59
2023-01-25T00:17:08.146Z,82.27
2023-01-25T00:19:34.942Z,81.90
2023-01-25T00:22:02.847Z,82.21
2023-01-25T00:24:29.611Z,82.29
2023-01-25T00:26:56.169Z,82.17
2023-01-25T00:29:22.758Z,82.03
2023-01-25T00:32:02.268Z,82.72
2023-01-25T00:34:44.433Z,82.63
2023-01-25T00:37:18.834Z,82.80
2023-01-25T00:39:45.429Z,82.77
2023-01-25T00:42:13.000Z,83.24
2023-01-25T00:44:40.026Z,83.11
2023-01-25T00:47:09.284Z,83.79
2023-01-25T00:49:35.938Z,83.34
2023-01-25T00:52:02.520Z,83.31
2023-01-25T00:54:30.612Z,82.35
2023-01-25T00:56:57.375Z,82.60
2023-01-25T00:59:25.013Z,82.60
2023-01-25T01:01:53.419Z,83.37
2023-01-25T01:04:21.259Z,84.01
2023-01-25T01:06:47.823Z,84.18
2023-01-25T01:09:16.533Z,84.78
2023-01-25T01:11:44.803Z,84.23
2023-01-25T01:14:12.346Z,83.72
2023-01-25T01:16:39.085Z,83.90
2023-01-25T01:19:06.164Z,83.38
2023-01-25T01:21:32.968Z,83.64
2023-01-25T01:24:00.097Z,83.89
2023-01-25T01:26:26.960Z,84.39
2023-01-25T01:28:54.964Z,83.93
2023-01-25T01:31:23.511Z,84.04
2023-01-25T01:34:01.573Z,83.88
2023-01-25T01:36:30.370Z,84.32
2023-01-25T01:38:58.706Z,84.09
2023-01-25T01:41:25.714Z,84.41
2023-01-25T01:43:52.504Z,85.09
2023-01-25T01:46:27.382Z,84.86
2023-01-25T01:49:00.432Z,85.02
2023-01-25T01:51:35.913Z,84.71
2023-01-25T01:54:09.423Z,85.06
2023-01-25T01:56:40.404Z,84.87
2023-01-25T01:59:09.288Z,84.45
2023-01-25T02:01:37.637Z,84.36
2023-01-25T02:04:06.355Z,84.20
2023-01-25T02:06:40.679Z,84.70
2023-01-25T02:09:07.447Z,85.17
2023-01-25T02:11:34.590Z,85.18
2023-01-25T02:14:02.792Z,85.12
2023-01-25T02:16:29.530Z,85.19
2023-01-25T02:18:59.241Z,85.26
2023-01-25T02:21:25.892Z,85.08
2023-01-25T02:24:01.226Z,84.99
2023-01-25T02:26:29.371Z,85.02
2023-01-25T02:29:01.400Z,84.89
2023-01-25T02:31:28.341Z,84.79
2023-01-25T02:33:54.962Z,84.98
2023-01-25T02:36:25.649Z,84.56
2023-01-25T02:38:56.430Z,84.25
2023-01-25T02:41:32.342Z,84.44
2023-01-25T02:44:00.140Z,84.16
2023-01-25T02:46:29.346Z,83.73
2023-01-25T02:48:57.720Z,84.15
2023-01-25T02:51:26.374Z,84.73
2023-01-25T02:53:55.733Z,84.53
2023-01-25T02:56:42.745Z,84.60
2023-01-25T02:59:12.467Z,84.52
2023-01-25T03:01:43.094Z,84.09
2023-01-25T03:04:10.391Z,84.38
2023-01-25T03:06:38.391Z,84.37
2023-01-25T03:09:08.422Z,84.77
2023-01-25T03:11:37.377Z,84.49
2023-01-25T03:14:04.235Z,84.35
2023-01-25T03:16:32.724Z,84.47
2023-01-25T03:19:00.566Z,84.44
2023-01-25T03:21:27.911Z,84.08
2023-01-25T03:23:56.680Z,84.52
2023-01-25T03:26:26.158Z,84.51
2023-01-25T03:29:15.416Z,83.86
2023-01-25T03:31:45.554Z,83.96
2023-01-25T03:34:14.109Z,84.34
2023-01-25T03:36:42.492Z,84.04
2023-01-25T03:39:09.631Z,84.74
2023-01-25T03:41:40.535Z,84.15
2023-01-25T03:44:10.326Z,84.21
2023-01-25T03:46:37.089Z,84.22
2023-01-25T03:49:06.846Z,84.57
2023-01-25T03:51:33.415Z,84.57
2023-01-25T03:54:00.331Z,84.48
2023-01-25T03:56:27.273Z,84.00
2023-01-25T03:59:11.040Z,83.50
2023-01-25T04:01:37.883Z,83.31
2023-01-25T04:04:05.799Z,84.08
2023-01-25T04:06:33.441Z,84.32
2023-01-25T04:09:00.973Z,84.36
2023-01-25T04:11:34.489Z,83.88
2023-01-25T04:14:01.435Z,84.72
2023-01-25T04:16:34.550Z,85.08
2023-01-25T04:19:19.611Z,84.28
2023-01-25T04:21:46.220Z,84.20
2023-01-25T04:24:12.915Z,85.36
2023-01-25T04:26:42.147Z,85.40
2023-01-25T04:29:10.079Z,85.37
2023-01-25T04:31:36.802Z,85.66
2023-01-25T04:34:04.050Z,85.51
2023-01-25T04:36:32.304Z,85.59
2023-01-25T04:38:58.850Z,85.46
2023-01-25T04:41:26.744Z,85.49
2023-01-25T04:43:54.522Z,85.49
2023-01-25T04:46:21.614Z,85.35
2023-01-25T04:48:48.255Z,85.98
2023-01-25T04:51:16.313Z,85.96
2023-01-25T04:53:44.630Z,86.22
2023-01-25T04:56:12.165Z,86.00
2023-01-25T04:58:47.407Z,86.82
2023-01-25T05:01:14.265Z,86.21
2023-01-25T05:03:40.874Z,86.38
2023-01-25T05:06:15.126Z,86.73
2023-01-25T05:08:41.854Z,86.50
2023-01-25T05:11:10.068Z,86.32
2023-01-25T05:14:01.133Z,86.66
2023-01-25T05:16:31.530Z,86.58
2023-01-25T05:18:58.969Z,86.86
2023-01-25T05:21:36.879Z,86.50
2023-01-25T05:24:04.523Z,86.31
2023-01-25T05:26:34.151Z,86.61
2023-01-25T05:29:00.864Z,87.36
2023-01-25T05:31:45.043Z,87.37
2023-01-25T05:34:11.727Z,87.50
2023-01-25T05:36:38.525Z,86.91
2023-01-25T05:39:05.375Z,86.58
2023-01-25T05:41:33.905Z,87.04
2023-01-25T05:44:01.257Z,86.88
2023-01-25T05:46:29.969Z,87.04
2023-01-25T05:48:56.736Z,86.94
2023-01-25T05:51:25.960Z,86.06
2023-01-25T05:53:54.587Z,85.76
2023-01-25T05:56:21.564Z,86.15
2023-01-25T05:58:54.008Z,86.23
2023-01-25T06:01:21.195Z,86.42
2023-01-25T06:03:52.949Z,86.66
2023-01-25T06:06:20.577Z,86.97
2023-01-25T06:08:48.117Z,86.80
2023-01-25T06:11:18.473Z,86.85
2023-01-25T06:13:46.613Z,86.57
2023-01-25T06:16:15.773Z,86.35
2023-01-25T06:18:43.211Z,86.55
2023-01-25T06:21:22.805Z,87.29
2023-01-25T06:23:49.485Z,87.79
2023-01-25T06:26:15.998Z,87.61
2023-01-25T06:28:42.854Z,86.81
2023-01-25T06:31:11.018Z,87.32
2023-01-25T06:33:42.825Z,87.14
2023-01-25T06:36:12.252Z,88.06
2023-01-25T06:38:38.963Z,88.46
2023-01-25T06:41:08.802Z,88.12
2023-01-25T06:43:36.779Z,88.75
2023-01-25T06:46:05.368Z,88.56
2023-01-25T06:48:32.839Z,88.60
2023-01-25T06:51:02.710Z,88.90
2023-01-25T06:53:31.307Z,88.25
2023-01-25T06:55:59.402Z,88.14
2023-01-25T06:58:26.564Z,88.11
2023-01-25T07:00:53.270Z,87.65
2023-01-25T07:03:19.791Z,87.89
2023-01-25T07:05:46.530Z,87.79
2023-01-25T07:08:14.381Z,87.27
2023-01-25T07:10:40.874Z,87.51
2023-01-25T07:13:07.377Z,88.02
2023-01-25T07:15:33.928Z,88.51
2023-01-25T07:18:14.785Z,88.25
2023-01-25T07:20:42.389Z,88.18
2023-01-25T07:23:08.898Z,87.75
2023-01-25T07:25:36.833Z,87.79
2023-01-25T07:28:03.670Z,88.07
2023-01-25T07:30:30.187Z,87.99
2023-01-25T07:32:59.178Z,87.48
2023-01-25T07:35:25.752Z,87.81
2023-01-25T07:37:52.236Z,88.20
2023-01-25T07:40:18.815Z,88.28
2023-01-25T07:42:46.690Z,87.39
2023-01-25T07:45:13.600Z,87.61
2023-01-25T07:47:40.075Z,87.59
2023-01-25T07:50:07.459Z,87.40
2023-01-25T07:52:33.967Z,88.02
2023-01-25T07:55:00.523Z,87.78
2023-01-25T07:57:27.035Z,88.00
2023-01-25T07:59:54.985Z,87.56
2023-01-25T08:02:21.564Z,88.14
2023-01-25T08:04:48.181Z,87.72
2023-01-25T08:07:15.121Z,87.89
2023-01-25T08:09:42.064Z,86.96
2023-01-25T08:12:08.833Z,87.18
2023-01-25T08:14:35.525Z,87.57
2023-01-25T08:17:03.363Z,87.99
2023-01-25T08:19:30.892Z,88.22
2023-01-25T08:21:57.418Z,88.15
2023-01-25T08:24:25.524Z,88.09
2023-01-25T08:26:52.178Z,87.31
2023-01-25T08:29:18.955Z,87.40
2023-01-25T08:31:45.526Z,87.35
2023-01-25T08:34:14.288Z,87.47
2023-01-25T08:36:40.779Z,87.28
2023-01-25T08:39:08.543Z,87.84
2023-01-25T08:41:35.873Z,87.70
2023-01-25T08:44:02.892Z,87.53
2023-01-25T08:46:32.069Z,87.55
2023-01-25T08:49:00.450Z,87.78
2023-01-25T08:51:28.765Z,87.52
2023-01-25T08:53:55.441Z,87.93
2023-01-25T08:56:22.123Z,87.68
2023-01-25T08:58:50.131Z,87.38
2023-01-25T09:01:19.044Z,87.64
2023-01-25T09:03:47.419Z,87.33
2023-01-25T09:06:14.721Z,87.20
2023-01-25T09:08:42.994Z,86.71
2023-01-25T09:11:11.624Z,86.37
2023-01-25T09:13:38.542Z,86.79
2023-01-25T09:16:07.113Z,86.94
2023-01-25T09:18:36.516Z,87.57
2023-01-25T09:21:06.499Z,87.38
2023-01-25T09:23:33.319Z,87.36
2023-01-25T09:26:08.219Z,86.93
2023-01-25T09:28:34.716Z,87.25
2023-01-25T09:31:20.308Z,87.93
2023-01-25T09:34:06.917Z,87.51
2023-01-25T09:36:33.467Z,86.78
2023-01-25T09:39:00.179Z,86.70
2023-01-25T09:41:58.455Z,86.92
2023-01-25T09:44:46.652Z,87.95
2023-01-25T09:47:21.347Z,88.02
2023-01-25T09:50:10.257Z,88.07
2023-01-25T09:53:05.564Z,88.06
2023-01-25T09:55:33.174Z,88.05
2023-01-25T09:58:02.761Z,87.30
2023-01-25T10:00:34.456Z,87.00
2023-01-25T10:03:11.749Z,86.95
2023-01-25T10:05:45.306Z,86.79
2023-01-25T10:08:19.901Z,86.64
2023-01-25T10:10:52.189Z,87.33
2023-01-25T10:13:23.962Z,87.54
2023-01-25T10:15:55.639Z,87.33
2023-01-25T10:18:28.788Z,87.49
2023-01-25T10:20:58.324Z,87.31
2023-01-25T10:23:40.648Z,86.96
2023-01-25T10:26:15.944Z,87.29
2023-01-25T10:28:50.858Z,87.46
2023-01-25T10:31:20.190Z,87.34
2023-01-25T10:33:48.700Z,87.12
2023-01-25T10:36:16.939Z,86.61
2023-01-25T10:38:45.607Z,86.49
2023-01-25T10:41:18.431Z,86.26
2023-01-25T10:43:46.387Z,86.20
2023-01-25T10:46:23.181Z,85.07
2023-01-25T10:48:49.948Z,85.59
2023-01-25T10:51:31.155Z,85.26
2023-01-25T10:54:03.418Z,85.75
2023-01-25T10:56:32.636Z,85.66
2023-01-25T10:59:15.071Z,85.29
2023-01-25T11:01:42.608Z,84.96
2023-01-25T11:04:27.755Z,85.49
2023-01-25T11:06:54.385Z,84.93
2023-01-25T11:09:35.175Z,84.78
2023-01-25T11:12:03.002Z,85.37
2023-01-25T11:14:32.559Z,85.38
2023-01-25T11:17:01.674Z,85.59
2023-01-25T11:19:32.684Z,85.96
2023-01-25T11:22:01.961Z,85.71
2023-01-25T11:24:29.475Z,85.27
2023-01-25T11:27:14.323Z,86.15
2023-01-25T11:29:42.291Z,86.48
2023-01-25T11:32:17.492Z,86.25
2023-01-25T11:34:44.178Z,86.25
2023-01-25T11:37:27.767Z,85.06
2023-01-25T11:40:04.882Z,85.22
2023-01-25T11:42:41.450Z,85.84
2023-01-25T11:45:36.596Z,86.08
2023-01-25T11:48:22.468Z,86.31
2023-01-25T11:50:55.949Z,86.08
2023-01-25T11:53:36.671Z,86.14
2023-01-25T11:56:15.224Z,85.71
2023-01-25T11:58:58.149Z,86.22
2023-01-25T12:01:36.073Z,85.49
2023-01-25T12:04:30.933Z,85.72
2023-01-25T12:07:01.619Z,86.18
2023-01-25T12:09:41.256Z,86.51
2023-01-25T12:12:15.833Z,86.81
2023-01-25T12:14:58.673Z,86.66
2023-01-25T12:17:38.976Z,86.89
2023-01-25T12:20:24.170Z,86.70
2023-01-25T12:23:06.313Z,86.41
2023-01-25T12:25:37.979Z,85.49
2023-01-25T12:28:12.326Z,85.20
2023-01-25T12:30:50.353Z,85.84
2023-01-25T12:33:23.694Z,85.94
2023-01-25T12:35:57.681Z,86.17
2023-01-25T12:38:29.768Z,86.42
2023-01-25T12:41:00.018Z,86.63
2023-01-25T12:43:31.996Z,86.21
2023-01-25T12:45:59.466Z,86.38
2023-01-25T12:48:31.597Z,86.98
2023-01-25T12:50:59.351Z,87.42
2023-01-25T12:53:29.663Z,87.12
2023-01-25T12:55:57.910Z,87.01
2023-01-25T12:58:37.789Z,86.74
2023-01-25T13:01:12.257Z,86.71
2023-01-25T13:03:59.078Z,86.43
2023-01-25T13:06:38.890Z,86.31
2023-01-25T13:09:15.975Z,85.32
2023-01-25T13:11:44.756Z,85.35
2023-01-25T13:14:36.231Z,85.65
2023-01-25T13:17:21.717Z,85.25
2023-01-25T13:19:50.294Z,85.38
2023-01-25T13:22:50.210Z,84.79
2023-01-25T13:25:20.762Z,84.78
2023-01-25T13:27:47.878Z,84.90
2023-01-25T13:30:29.081Z,84.99
2023-01-25T13:32:58.604Z,85.46
2023-01-25T13:35:32.320Z,85.63
2023-01-25T13:38:02.006Z,86.41
2023-01-25T13:40:32.362Z,86.60
2023-01-25T13:43:00.585Z,86.43
2023-01-25T13:45:28.498Z,86.56
2023-01-25T13:48:05.596Z,86.06
2023-01-25T13:50:36.398Z,86.99
2023-01-25T13:53:05.863Z,87.08
2023-01-25T13:55:39.704Z,87.08
2023-01-25T13:58:11.263Z,87.18
2023-01-25T14:00:38.109Z,86.30
2023-01-25T14:03:05.865Z,86.26
2023-01-25T14:05:34.066Z,85.89
2023-01-25T14:08:00.645Z,86.55
2023-01-25T14:10:28.271Z,86.69
2023-01-25T14:12:59.050Z,86.79
2023-01-25T14:15:27.751Z,87.04
2023-01-25T14:18:14.847Z,86.64
2023-01-25T14:20:44.756Z,86.44
2023-01-25T14:23:25.570Z,85.10
2023-01-25T14:25:53.203Z,86.57
2023-01-25T14:28:20.614Z,85.68
2023-01-25T14:30:53.188Z,85.88
2023-01-25T14:33:22.889Z,87.62
2023-01-25T14:35:59.835Z,87.80
2023-01-25T14:38:29.824Z,87.12
2023-01-25T14:41:00.622Z,87.60
2023-01-25T14:43:28.287Z,88.87
2023-01-25T14:45:54.953Z,89.36
2023-01-25T14:48:38.442Z,88.69
2023-01-25T14:51:13.286Z,89.27
2023-01-25T14:53:42.649Z,89.50
2023-01-25T14:56:34.989Z,89.46
2023-01-25T14:59:02.970Z,89.74
2023-01-25T15:01:32.651Z,90.07
2023-01-25T15:03:59.482Z,89.64
2023-01-25T15:06:27.383Z,89.44
2023-01-25T15:08:54.063Z,88.82
2023-01-25T15:11:32.060Z,88.81
2023-01-25T15:14:02.160Z,89.63
2023-01-25T15:16:35.396Z,90.03
2023-01-25T15:19:02.001Z,90.14
2023-01-25T15:21:31.930Z,89.49
2023-01-25T15:24:00.841Z,89.19
2023-01-25T15:26:28.808Z,89.10
2023-01-25T15:28:56.957Z,89.51
2023-01-25T15:31:26.909Z,89.19
2023-01-25T15:33:54.065Z,89.82
2023-01-25T15:36:20.671Z,89.52
2023-01-25T15:38:48.654Z,90.00
2023-01-25T15:41:15.520Z,89.76
2023-01-25T15:43:42.102Z,89.78
2023-01-25T15:46:16.597Z,89.88
2023-01-25T15:48:45.059Z,89.45
2023-01-25T15:51:11.948Z,89.54
2023-01-25T15:53:38.990Z,89.73
2023-01-25T15:56:12.874Z,89.96
2023-01-25T15:58:42.304Z,89.68
2023-01-25T16:01:09.187Z,89.77
2023-01-25T16:03:36.040Z,89.79
2023-01-25T16:06:05.268Z,89.49
2023-01-25T16:08:31.870Z,89.88
2023-01-25T16:10:58.378Z,89.46
2023-01-25T16:13:26.593Z,89.20
2023-01-25T16:15:56.551Z,89.21
2023-01-25T16:18:23.252Z,89.16
2023-01-25T16:20:50.136Z,89.21
2023-01-25T16:23:16.893Z,89.59
2023-01-25T16:25:44.473Z,89.63
2023-01-25T16:28:13.553Z,89.84
2023-01-25T16:30:41.756Z,90.31
2023-01-25T16:33:08.505Z,90.54
2023-01-25T16:35:35.064Z,90.21
2023-01-25T16:38:01.938Z,90.02
2023-01-25T16:40:31.616Z,89.77
2023-01-25T16:42:58.186Z,89.73
2023-01-25T16:45:24.745Z,89.24
2023-01-25T16:47:52.704Z,89.69
2023-01-25T16:50:20.505Z,89.75
2023-01-25T16:52:47.456Z,89.52
2023-01-25T16:55:14.037Z,89.81
2023-01-25T16:57:42.398Z,89.59
2023-01-25T17:00:12.051Z,90.04
2023-01-25T17:02:41.935Z,89.81
2023-01-25T17:05:14.721Z,90.30
2023-01-25T17:07:41.220Z,90.31
2023-01-25T17:10:09.434Z,90.76
2023-01-25T17:12:36.991Z,90.72
2023-01-25T17:15:04.177Z,90.82
2023-01-25T17:17:30.693Z,90.74
2023-01-25T17:19:57.295Z,91.31
2023-01-25T17:22:25.453Z,90.99
2023-01-25T17:24:53.185Z,91.42
2023-01-25T17:27:19.697Z,91.38
2023-01-25T17:29:46.250Z,91.17
2023-01-25T17:32:12.901Z,91.43
2023-01-25T17:34:39.620Z,90.70
2023-01-25T17:37:06.132Z,89.73
2023-01-25T17:39:34.055Z,89.06
2023-01-25T17:42:00.615Z,90.13
2023-01-25T17:44:27.234Z,90.62
2023-01-25T17:46:53.775Z,91.44
2023-01-25T17:49:20.350Z,91.48
2023-01-25T17:51:46.863Z,90.51
2023-01-25T17:54:13.761Z,91.14
2023-01-25T17:56:41.835Z,91.66
2023-01-25T17:59:08.453Z,91.05
2023-01-25T18:01:35.923Z,91.42
2023-01-25T18:04:06.268Z,91.42
2023-01-25T18:06:33.034Z,91.29
2023-01-25T18:09:01.278Z,91.17
2023-01-25T18:11:31.734Z,91.02
2023-01-25T18:14:01.913Z,90.90
2023-01-25T18:16:30.659Z,91.48
2023-01-25T18:18:59.859Z,92.36
2023-01-25T18:21:28.174Z,92.62
2023-01-25T18:23:57.004Z,92.63
2023-01-25T18:26:26.011Z,92.94
2023-01-25T18:28:54.183Z,92.80
2023-01-25T18:31:22.146Z,92.86
2023-01-25T18:33:48.862Z,92.58
2023-01-25T18:36:16.419Z,93.14
2023-01-25T18:38:43.437Z,92.74
2023-01-25T18:41:10.053Z,92.80
2023-01-25T18:43:36.899Z,93.41
2023-01-25T18:46:04.465Z,93.09
2023-01-25T18:48:32.417Z,93.14
2023-01-25T18:50:59.781Z,93.21
2023-01-25T18:53:26.674Z,93.45
2023-01-25T18:56:00.690Z,93.32
2023-01-25T18:58:29.530Z,93.68
2023-01-25T19:01:01.824Z,94.23
2023-01-25T19:03:28.753Z,94.25
2023-01-25T19:05:56.900Z,93.75
2023-01-25T19:08:23.655Z,93.10
2023-01-25T19:10:50.144Z,92.84
2023-01-25T19:13:16.845Z,92.92
2023-01-25T19:15:43.812Z,92.83
2023-01-25T19:18:10.375Z,92.74
2023-01-25T19:20:36.884Z,92.51
2023-01-25T19:23:04.869Z,92.41
2023-01-25T19:25:31.440Z,92.54
2023-01-25T19:27:58.070Z,92.31
2023-01-25T19:30:24.640Z,92.75
2023-01-25T19:32:51.213Z,92.66
2023-01-25T19:35:17.722Z,92.46
2023-01-25T19:37:44.300Z,92.46
2023-01-25T19:40:13.422Z,91.90
2023-01-25T19:42:40.000Z,92.17
2023-01-25T19:45:07.876Z,92.44
2023-01-25T19:47:34.587Z,92.42
2023-01-25T19:50:01.102Z,92.17
2023-01-25T19:52:28.233Z,92.05
2023-01-25T19:54:54.728Z,91.89
2023-01-25T19:57:22.754Z,92.43
2023-01-25T19:59:49.279Z,92.18
2023-01-25T20:02:15.905Z,92.04
2023-01-25T20:04:42.382Z,92.66
2023-01-25T20:07:09.137Z,92.14
2023-01-25T20:09:35.637Z,92.06
2023-01-25T20:12:02.277Z,91.78
2023-01-25T20:14:30.359Z,90.78
2023-01-25T20:16:56.973Z,91.21
2023-01-25T20:19:23.485Z,91.62
2023-01-25T20:21:50.322Z,91.05
2023-01-25T20:24:16.912Z,90.70
2023-01-25T20:26:44.204Z,90.92
2023-01-25T20:29:12.235Z,91.70
2023-01-25T20:31:41.802Z,91.46
2023-01-25T20:34:11.620Z,91.37
2023-01-25T20:36:38.880Z,91.59
2023-01-25T20:39:06.740Z,91.55
2023-01-25T20:41:34.206Z,91.13
2023-01-25T20:44:02.823Z,91.20
2023-01-25T20:46:30.130Z,91.25
2023-01-25T20:48:58.001Z,91.52
2023-01-25T20:51:24.644Z,91.56
2023-01-25T20:53:51.545Z,91.95
2023-01-25T20:56:18.908Z,92.08
2023-01-25T20:58:45.700Z,91.88
2023-01-25T21:01:13.804Z,92.09
2023-01-25T21:03:40.664Z,92.11
2023-01-25T21:06:09.422Z,92.31
2023-01-25T21:08:36.092Z,92.05
2023-01-25T21:11:02.757Z,91.49
2023-01-25T21:13:29.692Z,91.63
2023-01-25T21:16:00.996Z,91.48
2023-01-25T21:18:29.426Z,91.69
2023-01-25T21:21:03.151Z,91.60
2023-01-25T21:23:31.828Z,90.67
2023-01-25T21:25:58.330Z,90.46
2023-01-25T21:28:25.025Z,90.20
2023-01-25T21:30:51.852Z,90.63
2023-01-25T21:33:18.656Z,90.32
2023-01-25T21:35:45.177Z,90.82
2023-01-25T21:38:12.014Z,90.52
2023-01-25T21:40:39.883Z,90.37
2023-01-25T21:43:06.908Z,90.51
2023-01-25T21:45:33.452Z,90.47
2023-01-25T21:48:00.181Z,90.47
2023-01-25T21:50:26.707Z,90.54
2023-01-25T21:52:53.341Z,90.24
2023-01-25T21:55:19.879Z,89.60
2023-01-25T21:57:48.085Z,90.16
2023-01-25T22:00:15.549Z,90.21
2023-01-25T22:02:42.768Z,90.37
2023-01-25T22:05:09.536Z,90.06
2023-01-25T22:07:36.185Z,90.06
2023-01-25T22:10:02.785Z,89.89
2023-01-25T22:12:29.383Z,90.28
2023-01-25T22:14:57.239Z,90.37
2023-01-25T22:17:24.074Z,89.70
2023-01-25T22:19:50.763Z,89.79
2023-01-25T22:22:17.407Z,89.87
2023-01-25T22:24:43.920Z,89.92
2023-01-25T22:27:36.693Z,90.12
2023-01-25T22:30:06.027Z,89.41
2023-01-25T22:32:32.543Z,89.34
2023-01-25T22:34:59.128Z,88.57
2023-01-25T22:37:25.680Z,87.55
2023-01-25T22:39:52.214Z,86.25
2023-01-25T22:42:18.717Z,86.65
2023-01-25T22:44:45.277Z,87.28
2023-01-25T22:47:13.101Z,88.07
2023-01-25T22:49:39.674Z,88.43
2023-01-25T22:52:06.163Z,88.49
2023-01-25T22:54:32.747Z,88.77
2023-01-25T22:56:59.262Z,89.06
2023-01-25T22:59:25.829Z,88.50
2023-01-25T23:01:52.450Z,88.39
2023-01-25T23:04:20.501Z,88.49
2023-01-25T23:06:47.071Z,88.39
2023-01-25T23:09:13.715Z,87.52
2023-01-25T23:11:40.230Z,87.55
2023-01-25T23:14:10.853Z,87.17
2023-01-25T23:16:37.574Z,87.27
2023-01-25T23:19:05.211Z,87.72
2023-01-25T23:21:33.350Z,88.31
2023-01-25T23:24:00.632Z,88.47
2023-01-25T23:26:29.415Z,88.99
2023-01-25T23:28:57.278Z,88.38
2023-01-25T23:31:24.877Z,88.87
2023-01-25T23:33:53.330Z,88.46
2023-01-25T23:36:22.925Z,88.99
2023-01-25T23:38:51.498Z,88.75
2023-01-25T23:41:19.865Z,88.91
2023-01-25T23:43:46.565Z,89.13
2023-01-25T23:46:13.346Z,89.14
2023-01-25T23:48:40.263Z,89.13
2023-01-25T23:51:07.192Z,89.30
2023-01-25T23:53:33.791Z,89.24
2023-01-25T23:56:03.822Z,89.30
2023-01-25T23:58:30.379Z,89.85
